createdAt,value
2018-07-15T00:00:11.341Z,17.97
2018-07-15T00:01:11.337Z,17.98
2018-07-15T00:02:11.334Z,17.97
2018-07-15T00:03:11.335Z,17.90
2018-07-15T00:04:11.326Z,17.90
2018-07-15T00:05:11.322Z,17.95
2018-07-15T00:06:11.521Z,17.97
2018-07-15T00:07:11.315Z,17.90
2018-07-15T00:08:11.310Z,17.90
2018-07-15T00:09:11.307Z,17.90
2018-07-15T00:10:11.304Z,17.83
2018-07-15T00:11:11.303Z,17.79
2018-07-15T00:12:11.296Z,17.76
2018-07-15T00:13:11.293Z,17.79
2018-07-15T00:14:11.291Z,17.76
2018-07-15T00:15:11.285Z,17.70
2018-07-15T00:16:11.285Z,17.65
2018-07-15T00:17:11.277Z,17.65
2018-07-15T00:18:11.273Z,17.70
2018-07-15T00:19:11.269Z,17.63
2018-07-15T00:20:11.265Z,17.60
2018-07-15T00:21:11.261Z,17.59
2018-07-15T00:22:11.258Z,17.63
2018-07-15T00:23:11.255Z,17.57
2018-07-15T00:24:11.249Z,17.54
2018-07-15T00:25:11.246Z,17.42
2018-07-15T00:26:11.243Z,17.49
2018-07-15T00:27:11.239Z,17.49
2018-07-15T00:28:11.234Z,17.54
2018-07-15T00:29:11.234Z,17.44
2018-07-15T00:30:11.227Z,17.33
2018-07-15T00:31:11.223Z,17.42
2018-07-15T00:32:11.218Z,17.46
2018-07-15T00:33:11.214Z,17.41
2018-07-15T00:34:11.212Z,17.36
2018-07-15T00:35:11.206Z,17.27
2018-07-15T00:36:11.202Z,17.34
2018-07-15T00:37:11.198Z,17.29
2018-07-15T00:38:11.195Z,17.26
2018-07-15T00:39:11.192Z,17.30
2018-07-15T00:40:11.186Z,17.29
2018-07-15T00:41:11.182Z,17.16
2018-07-15T00:42:11.178Z,17.09
2018-07-15T00:43:11.174Z,17.22
2018-07-15T00:44:11.171Z,17.24
2018-07-15T00:45:11.166Z,17.26
2018-07-15T00:46:11.166Z,17.22
2018-07-15T00:47:11.158Z,17.22
2018-07-15T00:48:11.153Z,17.24
2018-07-15T00:49:11.149Z,17.15
2018-07-15T00:50:11.145Z,17.11
2018-07-15T00:51:11.141Z,17.15
2018-07-15T00:52:11.137Z,17.06
2018-07-15T00:53:11.133Z,17.05
2018-07-15T00:54:11.128Z,16.99
2018-07-15T00:55:11.188Z,17.01
2018-07-15T00:56:11.120Z,16.99
2018-07-15T00:57:11.115Z,17.04
2018-07-15T00:58:11.112Z,17.04
2018-07-15T00:59:11.108Z,16.99
2018-07-15T01:00:11.103Z,17.01
2018-07-15T01:01:11.099Z,17.01
2018-07-15T01:02:11.094Z,16.96
2018-07-15T01:03:11.090Z,16.93
2018-07-15T01:04:11.086Z,16.96
2018-07-15T01:05:11.081Z,16.96
2018-07-15T01:06:11.079Z,16.91
2018-07-15T01:07:11.073Z,16.83
2018-07-15T01:08:11.068Z,16.84
2018-07-15T01:09:11.064Z,16.78
2018-07-15T01:10:11.060Z,16.83
2018-07-15T01:11:11.055Z,16.76
2018-07-15T01:12:11.050Z,16.76
2018-07-15T01:13:11.046Z,16.75
2018-07-15T01:14:11.042Z,16.78
2018-07-15T01:15:11.040Z,16.89
2018-07-15T01:16:11.033Z,16.86
2018-07-15T01:17:11.029Z,16.87
2018-07-15T01:18:11.025Z,16.91
2018-07-15T01:19:11.021Z,16.89
2018-07-15T01:20:11.015Z,16.75
2018-07-15T01:21:11.013Z,16.74
2018-07-15T01:22:11.017Z,16.69
2018-07-15T01:23:11.006Z,16.64
2018-07-15T01:24:10.999Z,16.61
2018-07-15T01:25:10.998Z,16.68
2018-07-15T01:26:10.989Z,16.75
2018-07-15T01:27:10.985Z,16.75
2018-07-15T01:28:10.979Z,16.60
2018-07-15T01:29:10.975Z,16.68
2018-07-15T01:30:10.974Z,16.60
2018-07-15T01:31:10.967Z,16.57
2018-07-15T01:32:10.961Z,16.54
2018-07-15T01:33:10.957Z,16.50
2018-07-15T01:34:10.954Z,16.50
2018-07-15T01:35:10.948Z,16.49
2018-07-15T01:36:10.943Z,16.46
2018-07-15T01:37:10.938Z,16.41
2018-07-15T01:38:10.934Z,16.49
2018-07-15T01:39:10.930Z,16.41
2018-07-15T01:40:10.924Z,16.42
2018-07-15T01:41:10.919Z,16.41
2018-07-15T01:42:10.915Z,16.33
2018-07-15T01:43:10.911Z,16.46
2018-07-15T01:44:10.905Z,16.32
2018-07-15T01:45:10.902Z,16.38
2018-07-15T01:46:10.896Z,16.39
2018-07-15T01:47:10.893Z,16.46
2018-07-15T01:48:10.885Z,16.33
2018-07-15T01:49:10.882Z,16.39
2018-07-15T01:50:10.877Z,16.33
2018-07-15T01:51:10.872Z,16.33
2018-07-15T01:52:10.869Z,16.26
2018-07-15T01:53:10.863Z,16.29
2018-07-15T01:54:10.857Z,16.29
2018-07-15T01:55:10.853Z,16.26
2018-07-15T01:56:10.848Z,16.26
2018-07-15T01:57:10.843Z,16.23
2018-07-15T01:58:10.839Z,16.21
2018-07-15T01:59:10.835Z,16.09
2018-07-15T02:00:10.836Z,16.12
2018-07-15T02:01:10.824Z,16.05
2018-07-15T02:02:10.819Z,16.13
2018-07-15T02:03:10.815Z,16.08
2018-07-15T02:04:10.811Z,16.04
2018-07-15T02:05:10.805Z,15.98
2018-07-15T02:06:10.800Z,16.00
2018-07-15T02:07:10.795Z,15.94
2018-07-15T02:08:10.789Z,15.98
2018-07-15T02:09:10.787Z,15.98
2018-07-15T02:10:10.806Z,16.01
2018-07-15T02:11:10.782Z,16.08
2018-07-15T02:12:10.769Z,16.02
2018-07-15T02:13:10.764Z,16.15
2018-07-15T02:14:10.759Z,16.04
2018-07-15T02:15:10.754Z,16.02
2018-07-15T02:16:10.749Z,16.08
2018-07-15T02:17:10.744Z,16.02
2018-07-15T02:18:10.739Z,16.01
2018-07-15T02:19:10.734Z,15.97
2018-07-15T02:20:10.728Z,15.97
2018-07-15T02:21:10.725Z,15.97
2018-07-15T02:22:10.718Z,15.92
2018-07-15T02:23:10.713Z,15.88
2018-07-15T02:24:10.708Z,15.86
2018-07-15T02:25:10.703Z,15.79
2018-07-15T02:26:10.699Z,15.76
2018-07-15T02:27:10.693Z,15.80
2018-07-15T02:28:10.688Z,15.72
2018-07-15T02:29:10.682Z,15.79
2018-07-15T02:30:10.678Z,15.67
2018-07-15T02:31:10.673Z,15.64
2018-07-15T02:32:10.668Z,15.65
2018-07-15T02:33:10.662Z,15.65
2018-07-15T02:34:10.658Z,15.64
2018-07-15T02:35:10.654Z,15.61
2018-07-15T02:36:10.650Z,15.55
2018-07-15T02:37:10.642Z,15.62
2018-07-15T02:38:10.637Z,15.61
2018-07-15T02:39:10.682Z,15.58
2018-07-15T02:40:10.626Z,15.59
2018-07-15T02:41:10.622Z,15.61
2018-07-15T02:42:10.619Z,15.59
2018-07-15T02:43:10.615Z,15.65
2018-07-15T02:44:10.605Z,15.64
2018-07-15T02:45:10.600Z,15.75
2018-07-15T02:46:10.594Z,15.73
2018-07-15T02:47:10.590Z,15.82
2018-07-15T02:48:10.583Z,15.77
2018-07-15T02:49:10.579Z,15.75
2018-07-15T02:50:10.577Z,15.70
2018-07-15T02:51:10.568Z,15.67
2018-07-15T02:52:10.562Z,15.59
2018-07-15T02:53:10.557Z,15.59
2018-07-15T02:54:10.553Z,15.55
2018-07-15T02:55:10.550Z,15.58
2018-07-15T02:56:10.541Z,15.67
2018-07-15T02:57:10.536Z,15.55
2018-07-15T02:58:10.531Z,15.54
2018-07-15T02:59:10.527Z,15.57
2018-07-15T03:00:10.521Z,15.49
2018-07-15T03:01:10.518Z,15.46
2018-07-15T03:02:10.510Z,15.37
2018-07-15T03:03:10.506Z,15.39
2018-07-15T03:04:10.499Z,15.43
2018-07-15T03:05:10.494Z,15.40
2018-07-15T03:06:10.489Z,15.43
2018-07-15T03:07:10.484Z,15.44
2018-07-15T03:08:10.477Z,15.43
2018-07-15T03:09:10.474Z,15.40
2018-07-15T03:10:10.467Z,15.40
2018-07-15T03:11:10.462Z,15.37
2018-07-15T03:12:10.456Z,15.39
2018-07-15T03:13:10.451Z,15.36
2018-07-15T03:14:10.446Z,15.31
2018-07-15T03:15:10.441Z,15.25
2018-07-15T03:16:10.435Z,15.28
2018-07-15T03:17:10.465Z,15.25
2018-07-15T03:18:10.424Z,15.19
2018-07-15T03:19:10.419Z,15.17
2018-07-15T03:20:10.413Z,15.18
2018-07-15T03:21:10.408Z,15.19
2018-07-15T03:22:10.403Z,15.17
2018-07-15T03:23:10.403Z,15.17
2018-07-15T03:24:10.394Z,15.18
2018-07-15T03:25:10.388Z,15.17
2018-07-15T03:26:10.381Z,15.06
2018-07-15T03:27:10.378Z,15.04
2018-07-15T03:28:10.369Z,15.04
2018-07-15T03:29:10.368Z,15.04
2018-07-15T03:30:10.361Z,14.96
2018-07-15T03:31:10.355Z,15.02
2018-07-15T03:32:10.347Z,15.00
2018-07-15T03:33:10.342Z,14.97
2018-07-15T03:34:10.384Z,14.92
2018-07-15T03:35:10.335Z,14.94
2018-07-15T03:36:10.335Z,14.97
2018-07-15T03:37:10.319Z,14.94
2018-07-15T03:38:10.315Z,14.86
2018-07-15T03:39:10.309Z,14.78
2018-07-15T03:40:10.303Z,14.81
2018-07-15T03:41:10.304Z,14.78
2018-07-15T03:42:10.292Z,14.81
2018-07-15T03:43:10.289Z,14.82
2018-07-15T03:44:10.280Z,14.81
2018-07-15T03:45:10.280Z,14.86
2018-07-15T03:46:10.270Z,14.72
2018-07-15T03:47:10.269Z,14.77
2018-07-15T03:48:10.260Z,14.68
2018-07-15T03:49:10.458Z,14.81
2018-07-15T03:50:10.248Z,14.84
2018-07-15T03:51:10.243Z,14.72
2018-07-15T03:52:10.235Z,14.66
2018-07-15T03:53:10.235Z,14.70
2018-07-15T03:54:10.227Z,14.79
2018-07-15T03:55:10.223Z,14.69
2018-07-15T03:56:10.217Z,14.69
2018-07-15T03:57:10.213Z,14.70
2018-07-15T03:58:10.201Z,14.77
2018-07-15T03:59:10.196Z,14.70
2018-07-15T04:00:10.190Z,14.77
2018-07-15T04:01:10.190Z,14.69
2018-07-15T04:02:10.179Z,14.82
2018-07-15T04:03:10.173Z,14.81
2018-07-15T04:04:10.172Z,14.85
2018-07-15T04:05:10.167Z,14.97
2018-07-15T04:06:10.156Z,14.92
2018-07-15T04:07:10.152Z,14.96
2018-07-15T04:08:10.144Z,14.96
2018-07-15T04:09:10.139Z,14.97
2018-07-15T04:10:10.135Z,14.99
2018-07-15T04:11:10.128Z,14.99
2018-07-15T04:12:10.125Z,15.06
2018-07-15T04:13:10.116Z,15.14
2018-07-15T04:14:10.116Z,15.09
2018-07-15T04:15:10.109Z,15.03
2018-07-15T04:16:10.103Z,15.06
2018-07-15T04:17:10.094Z,15.09
2018-07-15T04:18:10.090Z,15.09
2018-07-15T04:19:10.085Z,15.03
2018-07-15T04:20:10.077Z,15.10
2018-07-15T04:21:10.072Z,15.11
2018-07-15T04:22:10.066Z,15.06
2018-07-15T04:23:10.064Z,15.07
2018-07-15T04:24:10.056Z,15.15
2018-07-15T04:25:10.050Z,15.04
2018-07-15T04:26:10.047Z,15.15
2018-07-15T04:27:10.038Z,15.14
2018-07-15T04:28:10.036Z,15.14
2018-07-15T04:29:10.028Z,15.07
2018-07-15T04:30:10.024Z,15.18
2018-07-15T04:31:10.021Z,15.18
2018-07-15T04:32:10.010Z,15.22
2018-07-15T04:33:10.005Z,15.29
2018-07-15T04:34:10.003Z,15.28
2018-07-15T04:35:09.995Z,15.28
2018-07-15T04:36:09.988Z,15.24
2018-07-15T04:37:09.987Z,15.28
2018-07-15T04:38:09.977Z,15.36
2018-07-15T04:39:09.972Z,15.37
2018-07-15T04:40:09.966Z,15.35
2018-07-15T04:41:09.960Z,15.36
2018-07-15T04:42:09.955Z,15.40
2018-07-15T04:43:09.950Z,15.42
2018-07-15T04:44:09.946Z,15.46
2018-07-15T04:45:09.939Z,15.42
2018-07-15T04:46:09.934Z,15.39
2018-07-15T04:47:09.932Z,15.43
2018-07-15T04:48:09.922Z,15.44
2018-07-15T04:49:09.917Z,15.55
2018-07-15T04:50:09.912Z,15.61
2018-07-15T04:51:09.908Z,15.54
2018-07-15T04:52:09.907Z,15.61
2018-07-15T04:53:09.898Z,15.57
2018-07-15T04:54:09.894Z,15.58
2018-07-15T04:55:09.885Z,15.61
2018-07-15T04:56:09.878Z,15.61
2018-07-15T04:57:09.873Z,15.62
2018-07-15T04:58:09.868Z,15.61
2018-07-15T04:59:09.862Z,15.76
2018-07-15T05:00:09.856Z,15.77
2018-07-15T05:01:09.851Z,15.76
2018-07-15T05:02:09.970Z,15.90
2018-07-15T05:04:09.834Z,15.84
2018-07-15T05:05:09.832Z,15.98
2018-07-15T05:06:09.826Z,16.02
2018-07-15T05:07:09.819Z,16.08
2018-07-15T05:08:09.816Z,16.05
2018-07-15T05:09:09.809Z,16.04
2018-07-15T05:10:09.803Z,16.10
2018-07-15T05:11:09.833Z,16.24
2018-07-15T05:12:09.993Z,16.23
2018-07-15T05:13:09.794Z,16.32
2018-07-15T05:14:09.788Z,16.38
2018-07-15T05:15:09.776Z,16.41
2018-07-15T05:16:09.770Z,16.41
2018-07-15T05:17:09.765Z,16.47
2018-07-15T05:18:09.760Z,16.54
2018-07-15T05:19:09.756Z,16.56
2018-07-15T05:20:09.749Z,16.65
2018-07-15T05:21:09.751Z,16.66
2018-07-15T05:22:09.740Z,16.64
2018-07-15T05:23:09.735Z,16.66
2018-07-15T05:24:09.729Z,16.75
2018-07-15T05:25:09.725Z,16.79
2018-07-15T05:26:09.723Z,16.90
2018-07-15T05:27:09.716Z,17.01
2018-07-15T05:28:09.711Z,17.01
2018-07-15T05:29:09.714Z,16.93
2018-07-15T05:30:09.708Z,16.96
2018-07-15T05:31:09.697Z,17.05
2018-07-15T05:32:09.692Z,17.12
2018-07-15T05:33:09.691Z,17.16
2018-07-15T05:34:09.683Z,17.15
2018-07-15T05:35:09.682Z,17.19
2018-07-15T05:36:09.674Z,17.20
2018-07-15T05:37:09.670Z,17.27
2018-07-15T05:38:09.666Z,17.31
2018-07-15T05:39:09.665Z,17.31
2018-07-15T05:40:09.663Z,17.38
2018-07-15T05:41:09.653Z,17.42
2018-07-15T05:42:09.649Z,17.39
2018-07-15T05:43:09.645Z,17.45
2018-07-15T05:44:09.661Z,17.51
2018-07-15T05:45:09.641Z,17.64
2018-07-15T05:46:09.633Z,17.74
2018-07-15T05:47:09.629Z,17.79
2018-07-15T05:48:09.633Z,17.82
2018-07-15T05:49:09.621Z,17.90
2018-07-15T05:50:09.618Z,17.98
2018-07-15T05:51:09.615Z,18.05
2018-07-15T05:52:09.609Z,18.08
2018-07-15T05:53:09.613Z,18.07
2018-07-15T05:54:09.609Z,18.10
2018-07-15T05:55:09.599Z,18.16
2018-07-15T05:56:09.598Z,18.34
2018-07-15T05:57:09.592Z,18.49
2018-07-15T05:58:09.589Z,18.50
2018-07-15T05:59:09.585Z,18.53
2018-07-15T06:00:09.581Z,18.68
2018-07-15T06:01:09.578Z,18.80
2018-07-15T06:02:09.579Z,18.86
2018-07-15T06:03:09.575Z,18.83
2018-07-15T06:04:09.571Z,18.86
2018-07-15T06:05:09.774Z,18.89
2018-07-15T06:06:09.604Z,19.08
2018-07-15T06:07:09.563Z,19.19
2018-07-15T06:08:09.561Z,19.19
2018-07-15T06:09:09.552Z,19.24
2018-07-15T06:10:09.550Z,19.26
2018-07-15T06:11:09.548Z,19.31
2018-07-15T06:12:09.545Z,19.36
2018-07-15T06:13:09.540Z,19.41
2018-07-15T06:14:09.539Z,19.47
2018-07-15T06:15:09.537Z,19.48
2018-07-15T06:16:09.532Z,19.56
2018-07-15T06:17:09.539Z,19.58
2018-07-15T06:18:09.529Z,19.66
2018-07-15T06:19:09.531Z,19.79
2018-07-15T06:20:09.521Z,19.84
2018-07-15T06:21:09.523Z,19.77
2018-07-15T06:22:09.516Z,19.73
2018-07-15T06:23:09.514Z,19.89
2018-07-15T06:24:09.511Z,19.94
2018-07-15T06:25:09.512Z,20.00
2018-07-15T06:26:09.510Z,20.13
2018-07-15T06:27:09.507Z,20.13
2018-07-15T06:28:09.501Z,20.16
2018-07-15T06:29:09.499Z,20.25
2018-07-15T06:30:09.497Z,20.21
2018-07-15T06:31:09.495Z,20.28
2018-07-15T06:32:09.492Z,20.32
2018-07-15T06:33:09.490Z,20.44
2018-07-15T06:34:09.490Z,20.47
2018-07-15T06:35:09.486Z,20.63
2018-07-15T06:36:09.486Z,20.75
2018-07-15T06:37:09.482Z,20.77
2018-07-15T06:38:09.480Z,20.90
2018-07-15T06:39:09.478Z,20.92
2018-07-15T06:40:09.478Z,20.74
2018-07-15T06:41:09.476Z,20.87
2018-07-15T06:42:09.475Z,20.82
2018-07-15T06:43:09.471Z,20.88
2018-07-15T06:44:09.468Z,20.84
2018-07-15T06:45:09.472Z,20.88
2018-07-15T06:46:09.468Z,20.88
2018-07-15T06:47:09.467Z,20.96
2018-07-15T06:48:09.464Z,21.06
2018-07-15T06:49:09.505Z,21.15
2018-07-15T06:50:09.465Z,21.35
2018-07-15T06:51:09.459Z,21.30
2018-07-15T06:52:09.454Z,21.43
2018-07-15T06:53:09.456Z,21.60
2018-07-15T06:54:09.453Z,21.67
2018-07-15T06:55:09.450Z,21.77
2018-07-15T06:56:09.450Z,21.85
2018-07-15T06:57:09.450Z,21.92
2018-07-15T06:58:09.451Z,21.98
2018-07-15T06:59:09.445Z,22.08
2018-07-15T07:00:09.445Z,22.17
2018-07-15T07:01:09.447Z,22.30
2018-07-15T07:02:09.441Z,22.36
2018-07-15T07:03:09.443Z,22.47
2018-07-15T07:04:09.440Z,22.55
2018-07-15T07:05:09.438Z,22.68
2018-07-15T07:06:09.437Z,22.65
2018-07-15T07:07:09.513Z,22.80
2018-07-15T07:08:09.435Z,22.88
2018-07-15T07:09:09.434Z,22.94
2018-07-15T07:10:09.437Z,23.03
2018-07-15T07:11:09.433Z,23.15
2018-07-15T07:12:09.432Z,23.21
2018-07-15T07:13:09.431Z,23.28
2018-07-15T07:14:09.444Z,23.34
2018-07-15T07:15:09.434Z,23.46
2018-07-15T07:16:09.430Z,23.55
2018-07-15T07:17:09.434Z,23.59
2018-07-15T07:18:09.431Z,23.66
2018-07-15T07:19:09.436Z,23.63
2018-07-15T07:20:09.432Z,23.73
2018-07-15T07:21:09.432Z,23.88
2018-07-15T07:22:09.433Z,23.91
2018-07-15T07:23:09.439Z,24.13
2018-07-15T07:24:09.437Z,24.23
2018-07-15T07:25:09.439Z,24.38
2018-07-15T07:26:09.442Z,24.40
2018-07-15T07:27:09.445Z,24.36
2018-07-15T07:28:09.447Z,24.57
2018-07-15T07:29:09.449Z,24.55
2018-07-15T07:30:09.454Z,24.69
2018-07-15T07:31:09.457Z,24.85
2018-07-15T07:32:09.460Z,24.91
2018-07-15T07:33:09.464Z,24.98
2018-07-15T07:34:09.469Z,25.17
2018-07-15T07:35:09.478Z,25.22
2018-07-15T07:36:09.478Z,25.35
2018-07-15T07:37:09.485Z,25.47
2018-07-15T07:38:09.491Z,25.60
2018-07-15T07:39:09.499Z,25.75
2018-07-15T07:40:09.505Z,25.83
2018-07-15T07:41:09.581Z,25.78
2018-07-15T07:42:09.521Z,25.81
2018-07-15T07:43:09.529Z,25.77
2018-07-15T07:44:09.537Z,25.91
2018-07-15T07:45:09.546Z,25.99
2018-07-15T07:46:09.557Z,26.03
2018-07-15T07:47:09.564Z,25.95
2018-07-15T07:48:09.573Z,26.09
2018-07-15T07:49:09.586Z,26.25
2018-07-15T07:50:09.593Z,26.34
2018-07-15T07:51:09.604Z,26.51
2018-07-15T07:52:09.615Z,26.34
2018-07-15T07:53:09.631Z,26.56
2018-07-15T07:54:09.634Z,26.65
2018-07-15T07:55:09.648Z,26.88
2018-07-15T07:56:09.655Z,26.80
2018-07-15T07:57:09.667Z,26.88
2018-07-15T07:58:09.678Z,27.11
2018-07-15T07:59:09.695Z,27.11
2018-07-15T08:00:09.703Z,27.18
2018-07-15T08:01:09.714Z,27.05
2018-07-15T08:02:09.724Z,27.02
2018-07-15T08:03:09.737Z,27.11
2018-07-15T08:04:09.746Z,27.22
2018-07-15T08:05:09.762Z,27.30
2018-07-15T08:06:09.775Z,27.37
2018-07-15T08:07:09.790Z,27.51
2018-07-15T08:08:09.795Z,27.63
2018-07-15T08:09:09.807Z,27.89
2018-07-15T08:10:09.824Z,28.00
2018-07-15T08:11:09.836Z,28.19
2018-07-15T08:12:09.845Z,28.12
2018-07-15T08:13:09.859Z,28.17
2018-07-15T08:14:09.873Z,28.27
2018-07-15T08:15:09.912Z,28.29
2018-07-15T08:16:09.901Z,28.27
2018-07-15T08:17:09.911Z,28.33
2018-07-15T08:18:09.924Z,28.14
2018-07-15T08:19:09.941Z,27.92
2018-07-15T08:20:09.955Z,27.92
2018-07-15T08:21:09.971Z,28.10
2018-07-15T08:22:09.978Z,28.23
2018-07-15T08:24:10.006Z,28.41
2018-07-15T08:25:10.029Z,28.59
2018-07-15T08:26:10.035Z,28.52
2018-07-15T08:27:10.050Z,28.47
2018-07-15T08:28:10.111Z,28.56
2018-07-15T08:29:10.075Z,28.39
2018-07-15T08:30:10.090Z,28.33
2018-07-15T08:31:10.106Z,28.35
2018-07-15T08:32:10.121Z,28.52
2018-07-15T08:33:10.133Z,28.69
2018-07-15T08:34:10.154Z,28.79
2018-07-15T08:35:10.167Z,28.93
2018-07-15T08:36:10.176Z,29.19
2018-07-15T08:37:10.196Z,29.05
2018-07-15T08:38:10.206Z,29.19
2018-07-15T08:39:10.221Z,28.94
2018-07-15T08:40:10.235Z,29.04
2018-07-15T08:41:10.250Z,29.19
2018-07-15T08:42:10.265Z,28.93
2018-07-15T08:43:10.281Z,28.93
2018-07-15T08:44:10.295Z,29.23
2018-07-15T08:45:10.311Z,29.32
2018-07-15T08:46:10.396Z,29.22
2018-07-15T08:47:10.342Z,29.22
2018-07-15T08:48:10.357Z,29.14
2018-07-15T08:49:10.373Z,29.22
2018-07-15T08:50:10.387Z,29.08
2018-07-15T08:51:10.404Z,29.20
2018-07-15T08:52:10.476Z,29.34
2018-07-15T08:53:10.433Z,29.54
2018-07-15T08:54:10.448Z,29.78
2018-07-15T08:55:10.465Z,29.97
2018-07-15T08:56:10.484Z,30.06
2018-07-15T08:57:10.495Z,30.10
2018-07-15T08:58:10.511Z,29.75
2018-07-15T08:59:10.534Z,29.42
2018-07-15T09:00:10.543Z,29.32
2018-07-15T09:01:10.559Z,29.59
2018-07-15T09:02:10.575Z,29.65
2018-07-15T09:03:10.665Z,29.78
2018-07-15T09:04:10.611Z,29.65
2018-07-15T09:05:10.623Z,29.45
2018-07-15T09:06:10.639Z,29.68
2018-07-15T09:07:10.655Z,29.88
2018-07-15T09:08:10.674Z,30.18
2018-07-15T09:09:10.687Z,30.24
2018-07-15T09:10:10.704Z,30.27
2018-07-15T09:11:10.723Z,30.19
2018-07-15T09:12:10.736Z,30.47
2018-07-15T09:13:10.753Z,30.51
2018-07-15T09:14:10.770Z,30.43
2018-07-15T09:15:10.815Z,30.43
2018-07-15T09:16:10.802Z,30.50
2018-07-15T09:17:10.818Z,30.75
2018-07-15T09:18:10.835Z,30.37
2018-07-15T09:19:10.858Z,30.21
2018-07-15T09:20:10.868Z,30.09
2018-07-15T09:21:10.885Z,30.02
2018-07-15T09:22:10.905Z,30.12
2018-07-15T09:23:10.919Z,30.28
2018-07-15T09:24:10.934Z,30.32
2018-07-15T09:25:10.953Z,30.37
2018-07-15T09:26:10.969Z,30.59
2018-07-15T09:27:10.985Z,30.84
2018-07-15T09:28:11.000Z,31.07
2018-07-15T09:29:11.019Z,31.24
2018-07-15T09:30:11.035Z,31.29
2018-07-15T09:31:11.052Z,31.37
2018-07-15T09:32:11.071Z,31.44
2018-07-15T09:33:11.085Z,31.55
2018-07-15T09:34:11.101Z,31.59
2018-07-15T09:35:11.140Z,31.73
2018-07-15T09:36:11.135Z,31.76
2018-07-15T09:37:11.153Z,31.69
2018-07-15T09:38:11.175Z,31.24
2018-07-15T09:39:11.188Z,31.24
2018-07-15T09:40:11.205Z,31.31
2018-07-15T09:41:11.222Z,31.40
2018-07-15T09:42:11.238Z,31.84
2018-07-15T09:43:11.257Z,32.04
2018-07-15T09:44:11.272Z,31.96
2018-07-15T09:45:11.291Z,31.94
2018-07-15T09:46:11.308Z,31.56
2018-07-15T09:47:11.326Z,31.65
2018-07-15T09:48:11.547Z,31.62
2018-07-15T09:49:11.360Z,31.27
2018-07-15T09:50:11.378Z,31.37
2018-07-15T09:51:11.395Z,31.54
2018-07-15T09:52:11.615Z,31.77
2018-07-15T09:53:11.431Z,31.87
2018-07-15T09:54:11.450Z,31.37
2018-07-15T09:55:11.471Z,30.99
2018-07-15T09:56:11.489Z,31.09
2018-07-15T09:57:11.502Z,31.09
2018-07-15T09:58:11.590Z,31.27
2018-07-15T09:59:11.540Z,31.56
2018-07-15T10:00:11.556Z,31.71
2018-07-15T10:01:11.576Z,31.70
2018-07-15T10:02:11.595Z,31.61
2018-07-15T10:03:11.610Z,31.99
2018-07-15T10:04:11.634Z,32.37
2018-07-15T10:05:11.647Z,32.38
2018-07-15T10:06:11.667Z,32.41
2018-07-15T10:07:11.684Z,32.46
2018-07-15T10:08:11.706Z,32.63
2018-07-15T10:09:11.721Z,32.49
2018-07-15T10:10:11.942Z,32.21
2018-07-15T10:11:11.964Z,32.55
2018-07-15T10:12:11.779Z,32.70
2018-07-15T10:13:11.799Z,32.85
2018-07-15T10:14:11.813Z,33.05
2018-07-15T10:15:11.833Z,33.01
2018-07-15T10:16:11.850Z,33.28
2018-07-15T10:17:11.875Z,33.22
2018-07-15T10:18:11.889Z,33.11
2018-07-15T10:19:11.913Z,33.12
2018-07-15T10:20:11.926Z,33.22
2018-07-15T10:21:11.945Z,33.45
2018-07-15T10:22:11.969Z,33.34
2018-07-15T10:23:11.984Z,32.92
2018-07-15T10:24:12.203Z,32.71
2018-07-15T10:25:12.020Z,32.70
2018-07-15T10:27:12.064Z,32.19
2018-07-15T10:28:12.081Z,32.07
2018-07-15T10:29:12.092Z,31.56
2018-07-15T10:30:12.111Z,31.39
2018-07-15T10:31:12.129Z,31.47
2018-07-15T10:32:12.145Z,31.69
2018-07-15T10:33:12.421Z,32.11
2018-07-15T10:34:12.181Z,32.37
2018-07-15T10:35:12.204Z,32.68
2018-07-15T10:36:12.419Z,32.70
2018-07-15T10:37:12.236Z,32.90
2018-07-15T10:38:12.253Z,33.09
2018-07-15T10:39:12.270Z,33.14
2018-07-15T10:40:12.289Z,33.12
2018-07-15T10:41:12.306Z,33.20
2018-07-15T10:42:12.325Z,33.27
2018-07-15T10:43:12.346Z,33.09
2018-07-15T10:44:12.359Z,33.20
2018-07-15T10:45:12.378Z,33.01
2018-07-15T10:46:12.398Z,33.11
2018-07-15T10:47:12.471Z,33.19
2018-07-15T10:48:12.433Z,33.40
2018-07-15T10:49:12.457Z,33.74
2018-07-15T10:50:12.477Z,33.81
2018-07-15T10:51:12.491Z,33.87
2018-07-15T10:52:12.513Z,33.96
2018-07-15T10:53:12.526Z,33.95
2018-07-15T10:54:12.546Z,33.86
2018-07-15T10:55:12.566Z,33.67
2018-07-15T10:56:12.587Z,33.94
2018-07-15T10:57:12.805Z,34.10
2018-07-15T10:58:12.623Z,33.92
2018-07-15T10:59:12.641Z,33.79
2018-07-15T11:00:12.660Z,34.01
2018-07-15T11:01:12.680Z,34.10
2018-07-15T11:02:12.698Z,34.32
2018-07-15T11:03:12.718Z,34.45
2018-07-15T11:04:12.737Z,34.52
2018-07-15T11:05:12.756Z,34.51
2018-07-15T11:06:12.821Z,34.74
2018-07-15T11:07:12.795Z,34.61
2018-07-15T11:08:12.813Z,34.61
2018-07-15T11:09:12.832Z,34.75
2018-07-15T11:10:12.852Z,34.99
2018-07-15T11:11:12.871Z,34.99
2018-07-15T11:12:12.890Z,35.04
2018-07-15T11:13:12.971Z,34.78
2018-07-15T11:14:12.929Z,34.67
2018-07-15T11:15:12.953Z,34.10
2018-07-15T11:16:13.169Z,33.65
2018-07-15T11:17:13.191Z,33.74
2018-07-15T11:18:13.009Z,33.89
2018-07-15T11:19:13.026Z,33.96
2018-07-15T11:20:13.052Z,34.23
2018-07-15T11:21:13.064Z,34.51
2018-07-15T11:22:13.087Z,34.35
2018-07-15T11:23:13.111Z,34.01
2018-07-15T11:24:13.124Z,34.10
2018-07-15T11:25:13.146Z,34.21
2018-07-15T11:26:13.292Z,34.42
2018-07-15T11:27:13.187Z,34.38
2018-07-15T11:28:13.201Z,34.48
2018-07-15T11:29:13.219Z,34.58
2018-07-15T11:30:13.239Z,34.47
2018-07-15T11:31:13.323Z,34.38
2018-07-15T11:32:13.281Z,34.35
2018-07-15T11:33:13.297Z,34.06
2018-07-15T11:34:13.319Z,33.92
2018-07-15T11:35:13.337Z,33.57
2018-07-15T11:36:13.356Z,33.34
2018-07-15T11:37:13.579Z,33.17
2018-07-15T11:38:13.397Z,33.39
2018-07-15T11:39:13.416Z,33.40
2018-07-15T11:40:13.432Z,33.62
2018-07-15T11:41:13.450Z,33.74
2018-07-15T11:42:13.470Z,33.89
2018-07-15T11:43:13.491Z,33.83
2018-07-15T11:44:13.506Z,34.13
2018-07-15T11:45:13.526Z,34.25
2018-07-15T11:46:13.550Z,34.50
2018-07-15T11:47:13.569Z,34.78
2018-07-15T11:48:13.855Z,34.95
2018-07-15T11:49:13.603Z,34.92
2018-07-15T11:50:13.620Z,34.45
2018-07-15T11:51:13.640Z,34.20
2018-07-15T11:52:13.657Z,34.24
2018-07-15T11:53:13.683Z,33.87
2018-07-15T11:54:13.695Z,33.86
2018-07-15T11:55:13.714Z,33.98
2018-07-15T11:56:13.732Z,34.36
2018-07-15T11:57:13.750Z,34.57
2018-07-15T11:58:13.770Z,34.86
2018-07-15T11:59:13.787Z,34.47
2018-07-15T12:00:13.807Z,34.33
2018-07-15T12:01:13.825Z,34.55
2018-07-15T12:02:13.845Z,34.50
2018-07-15T12:03:13.861Z,34.52
2018-07-15T12:04:13.878Z,34.50
2018-07-15T12:05:13.903Z,33.98
2018-07-15T12:06:13.918Z,33.92
2018-07-15T12:07:13.933Z,34.24
2018-07-15T12:08:13.952Z,34.51
2018-07-15T12:09:13.970Z,34.70
2018-07-15T12:10:13.987Z,34.86
2018-07-15T12:11:14.009Z,34.99
2018-07-15T12:12:14.025Z,35.05
2018-07-15T12:13:14.044Z,34.77
2018-07-15T12:14:14.060Z,34.11
2018-07-15T12:15:14.080Z,33.96
2018-07-15T12:16:14.100Z,34.14
2018-07-15T12:17:14.114Z,34.52
2018-07-15T12:18:14.131Z,34.95
2018-07-15T12:19:14.154Z,34.97
2018-07-15T12:20:14.169Z,35.10
2018-07-15T12:21:14.185Z,35.37
2018-07-15T12:22:14.206Z,35.27
2018-07-15T12:23:14.225Z,35.64
2018-07-15T12:24:14.242Z,35.82
2018-07-15T12:25:14.260Z,36.17
2018-07-15T12:26:14.275Z,36.24
2018-07-15T12:27:14.495Z,36.46
2018-07-15T12:28:14.372Z,36.67
2018-07-15T12:29:14.329Z,36.84
2018-07-15T12:30:14.346Z,36.83
2018-07-15T12:31:14.367Z,36.83
2018-07-15T12:32:14.380Z,36.68
2018-07-15T12:33:14.401Z,36.64
2018-07-15T12:34:14.425Z,36.39
2018-07-15T12:35:14.435Z,36.04
2018-07-15T12:36:14.455Z,36.01
2018-07-15T12:37:14.470Z,36.24
2018-07-15T12:39:14.508Z,36.57
2018-07-15T12:40:14.528Z,36.67
2018-07-15T12:41:14.541Z,36.79
2018-07-15T12:42:14.562Z,36.79
2018-07-15T12:43:14.577Z,36.79
2018-07-15T12:44:14.599Z,36.91
2018-07-15T12:45:14.616Z,36.43
2018-07-15T12:46:14.631Z,36.55
2018-07-15T12:47:14.648Z,36.84
2018-07-15T12:48:14.665Z,36.79
2018-07-15T12:49:14.688Z,36.57
2018-07-15T12:50:14.703Z,36.51
2018-07-15T12:51:14.726Z,36.68
2018-07-15T12:52:14.880Z,36.83
2018-07-15T12:53:14.764Z,36.73
2018-07-15T12:54:14.771Z,36.55
2018-07-15T12:55:14.790Z,36.43
2018-07-15T12:56:14.809Z,36.39